AirNav   Air Wisconsin pilot careers
 
 1553 users online  

99N Bamberg County Airport
Bamberg, South Carolina, USA

GOING TO BAMBERG?


FAA INFORMATION EFFECTIVE 01 FEBRUARY 2018

Location

FAA Identifier: 99N
Lat/Long: 33-18-16.3000N / 081-06-30.3000W
33-18.271667N / 081-06.505000W
33.3045278 / -81.1084167
(estimated)
Elevation: 231 ft. / 70 m (estimated)
Variation: 07W (2010)
From city: 5 miles W of BAMBERG, SC
Time zone: UTC -5 (UTC -4 during Daylight Saving Time)
Zip code: 29042

Airport Operations

Airport use: Open to the public
Activation date: 10/1982
Control tower: no
ARTCC: JACKSONVILLE CENTER
FSS: ANDERSON FLIGHT SERVICE STATION
NOTAMs facility: AND (NOTAM-D service available)
Attendance: UNATNDD
Wind indicator: yes
Segmented circle: yes
Lights: MIRL RY 05/23, PAPI RY 05 AND PAPI RY 23 OPER DUSK-2200. AFTER 2200 ACTVT MIRL RY 05-23, PAPI RY 05 AND PAPI RY 23-CTAF.
Beacon: white-green (lighted land airport)
Operates sunset to sunrise.

Airport Communications

CTAF/UNICOM: 122.8
COLUMBIA APPROACH: 124.15 [0545-0000]
COLUMBIA DEPARTURE: 124.15 [0545-0000]
WX AWOS-3 at BNL (14 nm W): 119.775 (803-259-4536)
WX ASOS at OGB (15 nm NE): 118.525 (803-536-3901)
  • APCH/DEP SVC PROVIDED BY COLUMBIA APCH CTL ON FREQS 124.15/338.2

Nearby radio navigation aids

VOR radial/distance  VOR name  Freq  Var
ALDr029/(19.8)ALLENDALE VOR116.7001W
CAEr187/33.3COLUMBIA VORTAC114.7002W
VANr259/34.6VANCE VORTAC110.4006W

 
NDB name  Hdg/Dist  Freq  Var  ID
AIKEN132/35.334706WAIK .- .. -.-

Airport Services

Parking: tiedowns
Bottled oxygen: NONE
Bulk oxygen: NONE

Runway Information

Runway 5/23

Dimensions: 3603 x 60 ft. / 1098 x 18 m
Surface: asphalt, in good condition
Weight bearing capacity: 
Single wheel: 30.0
Double wheel: 60.0
Runway edge lights: medium intensity
RUNWAY 5  RUNWAY 23
Latitude: 33-18.056975N33-18.486865N
Longitude: 081-06.748578W081-06.260402W
Elevation: 208.3 ft.230.7 ft.
Gradient: 0.6% UP
Traffic pattern: leftleft
Runway heading: 051 magnetic, 044 true231 magnetic, 224 true
Markings: nonprecision, in fair conditionnonprecision, in fair condition
Visual slope indicator: 2-light PAPI on left (3.00 degrees glide path)2-light PAPI on left (3.00 degrees glide path)
Touchdown point: yes, no lightsyes, no lights
Obstructions: 65 ft. tree, 558 ft. from runway, 293 ft. left of centerline, 5:1 slope to clear58 ft. tree, 635 ft. from runway, 309 ft. right of centerline, 7:1 slope to clear

Airport Ownership and Management from official FAA records

Ownership: Publicly-owned
Owner: BAMBERG COUNTY
PO BOX 149
BAMBERG, SC 29003
Phone 803-245-5191
Manager: MR. JOEY PRESTON
PO BOX 149
BAMBERG, SC 29003
Phone 803-245-5191
COUNTY ADMINISTRATOR.

Airport Operational Statistics

Aircraft based on the field: 8
Single engine airplanes: 7
Multi engine airplanes: 1
    
Aircraft operations: avg 83/month *
69% transient general aviation
31% local general aviation
* for 12-month period ending 24 August 2017

Instrument Procedures

NOTE: All procedures below are presented as PDF files. If you need a reader for these files, you should download the free Adobe Reader.

NOT FOR NAVIGATION. Please procure official charts for flight.
FAA instrument procedures published for use between 1 February 2018 at 0901Z and 1 March 2018 at 0900Z.

 
IAPs - Instrument Approach Procedures
RNAV (GPS) RWY 05   download (179KB)
RNAV (GPS) RWY 23   download (168KB)
NOTE: Special Take-Off Minimums/Departure Procedures apply   download (141KB)

Other nearby airports with instrument procedures:

KBNL - Barnwell Regional Airport (14 nm W)
KOGB - Orangeburg Municipal Airport (15 nm NE)
KXNO - North Air Force Auxiliary Field (18 nm N)
KAQX - Allendale County Airport (20 nm SW)
6J0 - Lexington County Airport at Pelion (30 nm N)
 
Loc | Ops | Rwys | IFR | FBO | Links
Com | Nav | Svcs | Stats | Notes

AirNav Hotels Sweepstakes
 
Area around 99N (Bamberg County Airport)
 
Road maps at: MapQuest Bing Google
 
Aerial photo
WARNING: Photo may not be current or correct
Aerial photo of 99N (Bamberg County Airport)
Do you have a better or more recent aerial photo of Bamberg County Airport that you would like to share? If so, please send us your photo.

 
Sectional chart

 
Airport distance calculator
Flying to Bamberg County Airport? Find the distance to fly.

From to 99N

Sunrise and sunset
Times for 21-Feb-2018
 Local
(UTC-5)
 Zulu
(UTC)
Morning civil twilight06:3811:38
Sunrise07:0312:03
Sunset18:1323:13
Evening civil twilight18:3823:38

Current date and time
Zulu (UTC)  21-Feb-2018 17:26:20
Local (UTC-5)  21-Feb-2018 12:26:20
 
METAR
KBNL 
14nm W 
211715Z AUTO 18007KT 10SM 24/21 A3045 RMK AO2
KOGB 
16nm NE 
211702Z AUTO 24006KT 5SM -RA BR FEW011 BKN043 OVC050 22/21 A3045 RMK AO2 P0000 T02170206
KXNO 
18nm N 
211716Z AUTO 17005KT 10SM OVC009 22/18 A3045 RMK AO2 OVC V BKN SLP312 $
KAQX 
20nm SW 
211715Z AUTO VRB03KT 10SM FEW008 SCT016 BKN030 23/21 A3044 RMK AO2
TAF
KOGB 
16nm NE 
211459Z 2115/2212 18005KT P6SM OVC007 TEMPO 2116/2117 -SHRA BKN015 FM211700 18006KT P6SM BKN015 FM211900 18006KT P6SM SCT035 FM220300 17004KT 4SM BR OVC015 FM220600 15003KT 1/2SM FG OVC003
NOTAMs
Click for the latest NOTAMs
NOTAMs are issued by the DoD/FAA and will open in a separate window not controlled by AirNav.

 

 
 

Would you like to see your business listed on this page?

 If your business provides an interesting product or service to pilots, flight crews, aircraft, or users of the Bamberg County Airport, you should consider listing it here.  To start the listing process, click on the button below
 
Add a business
 

Other Pages about Bamberg County Airport

Update a link
 
Copyright © AirNav, LLC. All rights reserved. Privacy Policy  Contact